sensor_id;sensor_type;location;lat;lon;timestamp;temperature;humidity
47540;DHT22;33280;52.152;21.052;2023-02-20T00:01:53;1.10;99.90
47540;DHT22;33280;52.152;21.052;2023-02-20T00:04:20;1.10;99.90
47540;DHT22;33280;52.152;21.052;2023-02-20T00:06:48;1.00;99.90
47540;DHT22;33280;52.152;21.052;2023-02-20T00:09:15;1.10;99.90
47540;DHT22;33280;52.152;21.052;2023-02-20T00:11:42;1.10;99.90
47540;DHT22;33280;52.152;21.052;2023-02-20T00:14:09;1.10;99.90
47540;DHT22;33280;52.152;21.052;2023-02-20T00:20:21;1.10;99.90
47540;DHT22;33280;52.152;21.052;2023-02-20T00:22:49;1.10;99.90
47540;DHT22;33280;52.152;21.052;2023-02-20T00:25:17;1.10;99.90
47540;DHT22;33280;52.152;21.052;2023-02-20T00:27:45;1.10;99.90
47540;DHT22;33280;52.152;21.052;2023-02-20T00:30:21;1.20;99.90
47540;DHT22;33280;52.152;21.052;2023-02-20T00:32:49;1.30;99.90
47540;DHT22;33280;52.152;21.052;2023-02-20T00:35:17;1.30;99.90
47540;DHT22;33280;52.152;21.052;2023-02-20T00:37:45;1.30;99.90
47540;DHT22;33280;52.152;21.052;2023-02-20T00:40:14;1.40;99.90
47540;DHT22;33280;52.152;21.052;2023-02-20T00:42:44;1.40;99.90
47540;DHT22;33280;52.152;21.052;2023-02-20T00:45:12;1.40;99.90
47540;DHT22;33280;52.152;21.052;2023-02-20T00:47:40;1.40;99.90
47540;DHT22;33280;52.152;21.052;2023-02-20T00:50:09;1.50;99.90
47540;DHT22;33280;52.152;21.052;2023-02-20T00:52:38;1.50;99.90
47540;DHT22;33280;52.152;21.052;2023-02-20T00:55:07;1.50;99.90
47540;DHT22;33280;52.152;21.052;2023-02-20T00:57:33;1.50;99.90
47540;DHT22;33280;52.152;21.052;2023-02-20T01:00:00;1.50;99.90
47540;DHT22;33280;52.152;21.052;2023-02-20T01:02:27;1.50;99.90
47540;DHT22;33280;52.152;21.052;2023-02-20T01:04:54;1.50;99.90
47540;DHT22;33280;52.152;21.052;2023-02-20T01:07:51;1.50;99.90
47540;DHT22;33280;52.152;21.052;2023-02-20T01:10:43;1.50;99.90
47540;DHT22;33280;52.152;21.052;2023-02-20T01:13:10;1.50;99.90
47540;DHT22;33280;52.152;21.052;2023-02-20T01:15:37;1.50;99.90
47540;DHT22;33280;52.152;21.052;2023-02-20T01:18:06;1.50;99.90
47540;DHT22;33280;52.152;21.052;2023-02-20T01:20:33;1.50;99.90
47540;DHT22;33280;52.152;21.052;2023-02-20T01:23:00;1.60;99.90
47540;DHT22;33280;52.152;21.052;2023-02-20T01:25:28;1.60;99.90
47540;DHT22;33280;52.152;21.052;2023-02-20T01:27:55;1.60;99.90
47540;DHT22;33280;52.152;21.052;2023-02-20T01:30:21;1.60;99.90
47540;DHT22;33280;52.152;21.052;2023-02-20T01:32:48;1.60;99.90
47540;DHT22;33280;52.152;21.052;2023-02-20T01:35:15;1.60;99.90
47540;DHT22;33280;52.152;21.052;2023-02-20T01:37:42;1.60;99.90
47540;DHT22;33280;52.152;21.052;2023-02-20T01:40:15;1.60;99.90
47540;DHT22;33280;52.152;21.052;2023-02-20T01:42:42;1.60;99.90
47540;DHT22;33280;52.152;21.052;2023-02-20T01:47:47;1.60;99.90
47540;DHT22;33280;52.152;21.052;2023-02-20T01:50:15;1.70;99.90
47540;DHT22;33280;52.152;21.052;2023-02-20T01:52:47;1.70;99.90
47540;DHT22;33280;52.152;21.052;2023-02-20T01:58:02;1.70;99.90
47540;DHT22;33280;52.152;21.052;2023-02-20T02:00:30;1.60;99.90
47540;DHT22;33280;52.152;21.052;2023-02-20T02:03:08;1.70;99.90
47540;DHT22;33280;52.152;21.052;2023-02-20T02:05:38;1.70;99.90
47540;DHT22;33280;52.152;21.052;2023-02-20T02:08:07;1.70;99.90
47540;DHT22;33280;52.152;21.052;2023-02-20T02:10:39;1.70;99.90
47540;DHT22;33280;52.152;21.052;2023-02-20T02:13:10;1.70;99.90
47540;DHT22;33280;52.152;21.052;2023-02-20T02:15:37;1.70;99.90
47540;DHT22;33280;52.152;21.052;2023-02-20T02:23:50;1.70;99.90
47540;DHT22;33280;52.152;21.052;2023-02-20T02:32:10;1.70;99.90
47540;DHT22;33280;52.152;21.052;2023-02-20T02:34:56;1.70;99.90
47540;DHT22;33280;52.152;21.052;2023-02-20T02:37:52;1.70;99.90
47540;DHT22;33280;52.152;21.052;2023-02-20T02:40:40;1.70;99.90
47540;DHT22;33280;52.152;21.052;2023-02-20T02:43:51;1.60;99.90
47540;DHT22;33280;52.152;21.052;2023-02-20T02:46:55;1.70;99.90
47540;DHT22;33280;52.152;21.052;2023-02-20T02:49:50;1.70;99.90
47540;DHT22;33280;52.152;21.052;2023-02-20T02:52:20;1.60;99.90
47540;DHT22;33280;52.152;21.052;2023-02-20T02:55:08;1.60;99.90
47540;DHT22;33280;52.152;21.052;2023-02-20T02:57:35;1.60;99.90
47540;DHT22;33280;52.152;21.052;2023-02-20T03:00:13;1.60;99.90
47540;DHT22;33280;52.152;21.052;2023-02-20T03:02:59;1.60;99.90
47540;DHT22;33280;52.152;21.052;2023-02-20T03:08:40;1.60;99.90
47540;DHT22;33280;52.152;21.052;2023-02-20T03:11:13;1.60;99.90
47540;DHT22;33280;52.152;21.052;2023-02-20T03:13:55;1.60;99.90
47540;DHT22;33280;52.152;21.052;2023-02-20T03:19:58;1.60;99.90
47540;DHT22;33280;52.152;21.052;2023-02-20T03:25:14;1.60;99.90
47540;DHT22;33280;52.152;21.052;2023-02-20T03:30:35;1.60;99.90
47540;DHT22;33280;52.152;21.052;2023-02-20T03:33:15;1.70;99.90
47540;DHT22;33280;52.152;21.052;2023-02-20T03:36:05;1.70;99.90
47540;DHT22;33280;52.152;21.052;2023-02-20T03:38:57;1.60;99.90
47540;DHT22;33280;52.152;21.052;2023-02-20T03:41:44;1.60;99.90
47540;DHT22;33280;52.152;21.052;2023-02-20T03:44:32;1.60;99.90
47540;DHT22;33280;52.152;21.052;2023-02-20T03:47:01;1.70;99.90
47540;DHT22;33280;52.152;21.052;2023-02-20T03:49:34;1.60;99.90
47540;DHT22;33280;52.152;21.052;2023-02-20T03:52:03;1.60;99.90
47540;DHT22;33280;52.152;21.052;2023-02-20T03:54:31;1.60;99.90
47540;DHT22;33280;52.152;21.052;2023-02-20T03:57:03;1.60;99.90
47540;DHT22;33280;52.152;21.052;2023-02-20T03:59:48;1.60;99.90
47540;DHT22;33280;52.152;21.052;2023-02-20T04:02:30;1.60;99.90
47540;DHT22;33280;52.152;21.052;2023-02-20T04:05:03;1.70;99.90
47540;DHT22;33280;52.152;21.052;2023-02-20T04:07:36;1.60;99.90
47540;DHT22;33280;52.152;21.052;2023-02-20T04:10:07;1.60;99.90
47540;DHT22;33280;52.152;21.052;2023-02-20T04:12:38;1.50;99.90
47540;DHT22;33280;52.152;21.052;2023-02-20T04:15:09;1.60;99.90
47540;DHT22;33280;52.152;21.052;2023-02-20T04:17:49;1.60;99.90
47540;DHT22;33280;52.152;21.052;2023-02-20T04:20:17;1.60;99.90
47540;DHT22;33280;52.152;21.052;2023-02-20T04:22:47;1.50;99.90
47540;DHT22;33280;52.152;21.052;2023-02-20T04:27:50;1.50;99.90
47540;DHT22;33280;52.152;21.052;2023-02-20T04:30:18;1.50;99.90
47540;DHT22;33280;52.152;21.052;2023-02-20T04:32:45;1.40;99.90
47540;DHT22;33280;52.152;21.052;2023-02-20T04:35:16;1.50;99.90
47540;DHT22;33280;52.152;21.052;2023-02-20T04:37:43;1.50;99.90
47540;DHT22;33280;52.152;21.052;2023-02-20T04:40:11;1.50;99.90
47540;DHT22;33280;52.152;21.052;2023-02-20T04:42:39;1.50;99.90
47540;DHT22;33280;52.152;21.052;2023-02-20T04:45:06;1.50;99.90
47540;DHT22;33280;52.152;21.052;2023-02-20T04:47:33;1.40;99.90
47540;DHT22;33280;52.152;21.052;2023-02-20T04:50:00;1.40;99.90
47540;DHT22;33280;52.152;21.052;2023-02-20T04:52:27;1.40;99.90
47540;DHT22;33280;52.152;21.052;2023-02-20T04:54:54;1.40;99.90
47540;DHT22;33280;52.152;21.052;2023-02-20T04:57:21;1.50;99.90
47540;DHT22;33280;52.152;21.052;2023-02-20T04:59:48;1.50;99.90
47540;DHT22;33280;52.152;21.052;2023-02-20T05:02:15;1.50;99.90
47540;DHT22;33280;52.152;21.052;2023-02-20T05:04:42;1.50;99.90
47540;DHT22;33280;52.152;21.052;2023-02-20T05:07:09;1.50;99.90
47540;DHT22;33280;52.152;21.052;2023-02-20T05:09:35;1.50;99.90
47540;DHT22;33280;52.152;21.052;2023-02-20T05:12:02;1.60;99.90
47540;DHT22;33280;52.152;21.052;2023-02-20T05:14:29;1.60;99.90
47540;DHT22;33280;52.152;21.052;2023-02-20T05:16:56;1.60;99.90
47540;DHT22;33280;52.152;21.052;2023-02-20T05:19:23;1.60;99.90
47540;DHT22;33280;52.152;21.052;2023-02-20T05:21:50;1.70;99.90
47540;DHT22;33280;52.152;21.052;2023-02-20T05:24:35;1.70;99.90
47540;DHT22;33280;52.152;21.052;2023-02-20T05:27:02;1.80;99.90
47540;DHT22;33280;52.152;21.052;2023-02-20T05:29:29;1.80;99.90
47540;DHT22;33280;52.152;21.052;2023-02-20T05:31:55;1.70;99.90
47540;DHT22;33280;52.152;21.052;2023-02-20T05:34:22;1.80;99.90
47540;DHT22;33280;52.152;21.052;2023-02-20T05:36:52;1.80;99.90
47540;DHT22;33280;52.152;21.052;2023-02-20T05:39:20;1.80;99.90
47540;DHT22;33280;52.152;21.052;2023-02-20T05:41:47;1.90;99.90
47540;DHT22;33280;52.152;21.052;2023-02-20T05:44:15;1.90;99.90
47540;DHT22;33280;52.152;21.052;2023-02-20T05:46:42;1.90;99.90
47540;DHT22;33280;52.152;21.052;2023-02-20T05:49:09;1.90;99.90
47540;DHT22;33280;52.152;21.052;2023-02-20T05:51:37;2.00;99.90
47540;DHT22;33280;52.152;21.052;2023-02-20T05:54:04;2.00;99.90
47540;DHT22;33280;52.152;21.052;2023-02-20T05:56:31;2.00;99.90
47540;DHT22;33280;52.152;21.052;2023-02-20T05:58:59;2.00;99.90
47540;DHT22;33280;52.152;21.052;2023-02-20T06:01:28;2.00;99.90
47540;DHT22;33280;52.152;21.052;2023-02-20T06:03:55;2.00;99.90
47540;DHT22;33280;52.152;21.052;2023-02-20T06:06:23;2.00;99.90
47540;DHT22;33280;52.152;21.052;2023-02-20T06:08:50;2.00;99.90
47540;DHT22;33280;52.152;21.052;2023-02-20T06:11:16;2.10;99.90
47540;DHT22;33280;52.152;21.052;2023-02-20T06:13:44;2.10;99.90
47540;DHT22;33280;52.152;21.052;2023-02-20T06:16:11;2.00;99.90
47540;DHT22;33280;52.152;21.052;2023-02-20T06:18:40;2.20;99.90
47540;DHT22;33280;52.152;21.052;2023-02-20T06:21:09;2.20;99.90
47540;DHT22;33280;52.152;21.052;2023-02-20T06:23:37;2.20;99.90
47540;DHT22;33280;52.152;21.052;2023-02-20T06:26:05;2.20;99.90
47540;DHT22;33280;52.152;21.052;2023-02-20T06:28:32;2.30;99.90
47540;DHT22;33280;52.152;21.052;2023-02-20T06:30:59;2.30;99.90
47540;DHT22;33280;52.152;21.052;2023-02-20T06:33:28;2.30;99.90
47540;DHT22;33280;52.152;21.052;2023-02-20T06:35:55;2.40;99.90
47540;DHT22;33280;52.152;21.052;2023-02-20T06:38:23;2.40;99.90
47540;DHT22;33280;52.152;21.052;2023-02-20T06:40:50;2.40;99.90
47540;DHT22;33280;52.152;21.052;2023-02-20T06:43:17;2.60;99.90
47540;DHT22;33280;52.152;21.052;2023-02-20T06:45:44;2.60;99.90
47540;DHT22;33280;52.152;21.052;2023-02-20T06:48:12;2.60;99.90
47540;DHT22;33280;52.152;21.052;2023-02-20T06:50:42;2.70;99.90
47540;DHT22;33280;52.152;21.052;2023-02-20T06:53:08;2.70;99.90
47540;DHT22;33280;52.152;21.052;2023-02-20T06:55:35;2.70;99.90
47540;DHT22;33280;52.152;21.052;2023-02-20T06:58:02;2.70;99.90
47540;DHT22;33280;52.152;21.052;2023-02-20T07:00:29;2.70;99.90
47540;DHT22;33280;52.152;21.052;2023-02-20T07:02:56;2.80;99.90
47540;DHT22;33280;52.152;21.052;2023-02-20T07:05:23;2.80;99.90
47540;DHT22;33280;52.152;21.052;2023-02-20T07:07:50;2.90;99.90
47540;DHT22;33280;52.152;21.052;2023-02-20T07:10:17;3.00;99.90
47540;DHT22;33280;52.152;21.052;2023-02-20T07:12:44;3.00;99.90
47540;DHT22;33280;52.152;21.052;2023-02-20T07:15:11;3.10;99.90
47540;DHT22;33280;52.152;21.052;2023-02-20T07:17:38;3.20;99.90
47540;DHT22;33280;52.152;21.052;2023-02-20T07:20:06;3.20;99.90
47540;DHT22;33280;52.152;21.052;2023-02-20T07:22:33;3.20;99.90
47540;DHT22;33280;52.152;21.052;2023-02-20T07:25:00;3.30;99.90
47540;DHT22;33280;52.152;21.052;2023-02-20T07:30:24;3.40;99.90
47540;DHT22;33280;52.152;21.052;2023-02-20T07:32:51;3.40;99.90
47540;DHT22;33280;52.152;21.052;2023-02-20T07:35:22;3.40;99.90
47540;DHT22;33280;52.152;21.052;2023-02-20T07:37:49;3.40;99.90
47540;DHT22;33280;52.152;21.052;2023-02-20T07:40:16;3.50;99.90
47540;DHT22;33280;52.152;21.052;2023-02-20T07:42:44;3.60;99.90
47540;DHT22;33280;52.152;21.052;2023-02-20T07:45:15;3.60;99.90
47540;DHT22;33280;52.152;21.052;2023-02-20T07:47:42;3.70;99.90
47540;DHT22;33280;52.152;21.052;2023-02-20T07:50:09;3.70;99.90
47540;DHT22;33280;52.152;21.052;2023-02-20T07:52:35;3.80;99.90
47540;DHT22;33280;52.152;21.052;2023-02-20T07:55:02;3.80;99.90
47540;DHT22;33280;52.152;21.052;2023-02-20T07:57:31;3.70;99.90
47540;DHT22;33280;52.152;21.052;2023-02-20T08:00:06;3.70;99.90
47540;DHT22;33280;52.152;21.052;2023-02-20T08:02:39;3.70;99.90
47540;DHT22;33280;52.152;21.052;2023-02-20T08:05:06;3.70;99.90
47540;DHT22;33280;52.152;21.052;2023-02-20T08:07:33;3.80;99.90
47540;DHT22;33280;52.152;21.052;2023-02-20T08:10:01;3.70;99.90
47540;DHT22;33280;52.152;21.052;2023-02-20T08:12:27;3.70;99.90
47540;DHT22;33280;52.152;21.052;2023-02-20T08:14:56;3.80;99.90
47540;DHT22;33280;52.152;21.052;2023-02-20T08:17:22;3.80;99.90
47540;DHT22;33280;52.152;21.052;2023-02-20T08:19:53;3.80;99.90
47540;DHT22;33280;52.152;21.052;2023-02-20T08:22:20;4.00;99.90
47540;DHT22;33280;52.152;21.052;2023-02-20T08:25:05;4.10;99.90
47540;DHT22;33280;52.152;21.052;2023-02-20T08:27:32;4.10;99.90
47540;DHT22;33280;52.152;21.052;2023-02-20T08:30:09;4.20;99.90
47540;DHT22;33280;52.152;21.052;2023-02-20T08:32:37;4.20;99.90
47540;DHT22;33280;52.152;21.052;2023-02-20T08:35:04;4.20;99.90
47540;DHT22;33280;52.152;21.052;2023-02-20T08:37:31;4.20;99.90
47540;DHT22;33280;52.152;21.052;2023-02-20T08:39:58;4.20;99.90
47540;DHT22;33280;52.152;21.052;2023-02-20T08:42:28;4.20;99.90
47540;DHT22;33280;52.152;21.052;2023-02-20T08:44:56;4.10;99.90
47540;DHT22;33280;52.152;21.052;2023-02-20T08:47:23;4.00;99.90
47540;DHT22;33280;52.152;21.052;2023-02-20T08:49:50;4.00;99.90
47540;DHT22;33280;52.152;21.052;2023-02-20T08:52:17;4.00;99.90
47540;DHT22;33280;52.152;21.052;2023-02-20T08:54:47;3.80;99.90
47540;DHT22;33280;52.152;21.052;2023-02-20T08:57:16;3.70;99.90
47540;DHT22;33280;52.152;21.052;2023-02-20T08:59:44;3.70;99.90
47540;DHT22;33280;52.152;21.052;2023-02-20T09:02:17;3.60;99.90
47540;DHT22;33280;52.152;21.052;2023-02-20T09:04:44;3.60;99.90
47540;DHT22;33280;52.152;21.052;2023-02-20T09:07:12;3.50;99.90
47540;DHT22;33280;52.152;21.052;2023-02-20T09:09:40;3.40;99.90
47540;DHT22;33280;52.152;21.052;2023-02-20T09:12:08;3.30;99.90
47540;DHT22;33280;52.152;21.052;2023-02-20T09:14:36;3.30;99.90
47540;DHT22;33280;52.152;21.052;2023-02-20T09:17:04;3.30;99.90
47540;DHT22;33280;52.152;21.052;2023-02-20T09:19:31;3.30;99.90
47540;DHT22;33280;52.152;21.052;2023-02-20T09:21:58;3.20;99.90
47540;DHT22;33280;52.152;21.052;2023-02-20T09:24:27;3.10;99.90
47540;DHT22;33280;52.152;21.052;2023-02-20T09:26:57;3.00;99.90
47540;DHT22;33280;52.152;21.052;2023-02-20T09:29:25;3.00;99.90
47540;DHT22;33280;52.152;21.052;2023-02-20T09:31:53;3.00;99.90
47540;DHT22;33280;52.152;21.052;2023-02-20T09:34:20;2.90;99.90
47540;DHT22;33280;52.152;21.052;2023-02-20T09:36:50;2.90;99.90
47540;DHT22;33280;52.152;21.052;2023-02-20T09:39:18;2.90;99.90
47540;DHT22;33280;52.152;21.052;2023-02-20T09:42:05;2.80;99.90
47540;DHT22;33280;52.152;21.052;2023-02-20T09:44:58;2.80;99.90
47540;DHT22;33280;52.152;21.052;2023-02-20T09:55:42;2.70;99.90
47540;DHT22;33280;52.152;21.052;2023-02-20T10:00:57;2.50;99.90
47540;DHT22;33280;52.152;21.052;2023-02-20T10:06:26;2.20;99.90
47540;DHT22;33280;52.152;21.052;2023-02-20T10:08:54;2.10;99.90
47540;DHT22;33280;52.152;21.052;2023-02-20T10:16:50;1.90;99.90
47540;DHT22;33280;52.152;21.052;2023-02-20T10:19:51;1.80;99.90
47540;DHT22;33280;52.152;21.052;2023-02-20T10:22:22;1.80;99.90
47540;DHT22;33280;52.152;21.052;2023-02-20T10:30:31;1.70;99.90
47540;DHT22;33280;52.152;21.052;2023-02-20T10:33:38;1.70;99.90
47540;DHT22;33280;52.152;21.052;2023-02-20T10:36:27;1.70;99.90
47540;DHT22;33280;52.152;21.052;2023-02-20T10:39:09;1.70;99.90
47540;DHT22;33280;52.152;21.052;2023-02-20T10:50:05;1.70;99.90
47540;DHT22;33280;52.152;21.052;2023-02-20T10:52:47;1.80;99.90
47540;DHT22;33280;52.152;21.052;2023-02-20T10:55:35;1.80;99.90
47540;DHT22;33280;52.152;21.052;2023-02-20T10:58:07;1.80;99.90
47540;DHT22;33280;52.152;21.052;2023-02-20T11:00:39;1.80;99.90
47540;DHT22;33280;52.152;21.052;2023-02-20T11:03:16;1.80;99.90
47540;DHT22;33280;52.152;21.052;2023-02-20T11:05:50;1.80;99.90
47540;DHT22;33280;52.152;21.052;2023-02-20T11:08:19;1.80;99.90
47540;DHT22;33280;52.152;21.052;2023-02-20T11:10:48;1.80;99.90
47540;DHT22;33280;52.152;21.052;2023-02-20T11:13:23;1.80;99.90
47540;DHT22;33280;52.152;21.052;2023-02-20T11:15:53;1.80;99.90
47540;DHT22;33280;52.152;21.052;2023-02-20T11:18:34;1.80;99.90
47540;DHT22;33280;52.152;21.052;2023-02-20T11:21:04;1.70;99.90
47540;DHT22;33280;52.152;21.052;2023-02-20T11:23:45;1.70;99.90
47540;DHT22;33280;52.152;21.052;2023-02-20T11:26:29;1.70;99.90
47540;DHT22;33280;52.152;21.052;2023-02-20T11:29:20;1.70;99.90
47540;DHT22;33280;52.152;21.052;2023-02-20T11:31:49;1.70;99.90
47540;DHT22;33280;52.152;21.052;2023-02-20T11:34:23;1.70;99.90
47540;DHT22;33280;52.152;21.052;2023-02-20T11:36:53;1.70;99.90
47540;DHT22;33280;52.152;21.052;2023-02-20T11:39:26;1.80;99.90
47540;DHT22;33280;52.152;21.052;2023-02-20T11:42:16;1.80;99.90
47540;DHT22;33280;52.152;21.052;2023-02-20T11:44:44;1.90;99.90
47540;DHT22;33280;52.152;21.052;2023-02-20T11:47:24;2.00;99.90
47540;DHT22;33280;52.152;21.052;2023-02-20T11:50:18;2.10;99.90
47540;DHT22;33280;52.152;21.052;2023-02-20T11:52:57;2.20;99.90
47540;DHT22;33280;52.152;21.052;2023-02-20T11:55:25;2.30;99.90
47540;DHT22;33280;52.152;21.052;2023-02-20T11:57:53;2.40;99.90
47540;DHT22;33280;52.152;21.052;2023-02-20T12:00:26;2.50;99.90
47540;DHT22;33280;52.152;21.052;2023-02-20T12:03:11;2.50;99.90
47540;DHT22;33280;52.152;21.052;2023-02-20T12:05:42;2.60;99.90
47540;DHT22;33280;52.152;21.052;2023-02-20T12:11:17;2.80;99.90
47540;DHT22;33280;52.152;21.052;2023-02-20T12:13:50;2.90;99.90
47540;DHT22;33280;52.152;21.052;2023-02-20T12:19:43;3.20;99.90
47540;DHT22;33280;52.152;21.052;2023-02-20T12:30:39;3.80;99.90
47540;DHT22;33280;52.152;21.052;2023-02-20T12:36:16;3.90;99.90
47540;DHT22;33280;52.152;21.052;2023-02-20T12:41:49;4.10;99.90
47540;DHT22;33280;52.152;21.052;2023-02-20T12:47:26;4.30;99.90
47540;DHT22;33280;52.152;21.052;2023-02-20T12:58:08;4.60;99.90
47540;DHT22;33280;52.152;21.052;2023-02-20T13:00:43;4.60;99.90
47540;DHT22;33280;52.152;21.052;2023-02-20T13:03:32;4.60;99.90
47540;DHT22;33280;52.152;21.052;2023-02-20T13:06:03;4.60;99.90
47540;DHT22;33280;52.152;21.052;2023-02-20T13:08:55;4.80;99.90
47540;DHT22;33280;52.152;21.052;2023-02-20T13:11:30;4.80;99.90
47540;DHT22;33280;52.152;21.052;2023-02-20T13:17:28;4.80;99.90
47540;DHT22;33280;52.152;21.052;2023-02-20T13:19:59;4.80;99.90
47540;DHT22;33280;52.152;21.052;2023-02-20T13:22:38;4.80;99.90
47540;DHT22;33280;52.152;21.052;2023-02-20T13:28:05;4.90;99.90
47540;DHT22;33280;52.152;21.052;2023-02-20T13:30:40;5.00;99.90
47540;DHT22;33280;52.152;21.052;2023-02-20T13:33:21;5.00;99.90
47540;DHT22;33280;52.152;21.052;2023-02-20T13:35:55;5.00;99.90
47540;DHT22;33280;52.152;21.052;2023-02-20T13:38:26;5.20;99.90
47540;DHT22;33280;52.152;21.052;2023-02-20T13:46:09;5.20;99.90
47540;DHT22;33280;52.152;21.052;2023-02-20T13:56:42;5.40;99.90
47540;DHT22;33280;52.152;21.052;2023-02-20T13:59:16;5.50;99.90
47540;DHT22;33280;52.152;21.052;2023-02-20T14:01:54;5.70;99.90
47540;DHT22;33280;52.152;21.052;2023-02-20T14:07:10;5.80;99.90
47540;DHT22;33280;52.152;21.052;2023-02-20T14:09:37;6.00;99.90
47540;DHT22;33280;52.152;21.052;2023-02-20T14:12:12;6.00;99.90
47540;DHT22;33280;52.152;21.052;2023-02-20T14:14:44;6.10;99.90
47540;DHT22;33280;52.152;21.052;2023-02-20T14:17:17;6.10;99.90
47540;DHT22;33280;52.152;21.052;2023-02-20T14:19:53;6.10;99.90
47540;DHT22;33280;52.152;21.052;2023-02-20T14:22:37;6.20;99.90
47540;DHT22;33280;52.152;21.052;2023-02-20T14:27:39;6.30;99.90
47540;DHT22;33280;52.152;21.052;2023-02-20T14:30:19;6.30;99.90
47540;DHT22;33280;52.152;21.052;2023-02-20T14:32:52;6.30;99.90
47540;DHT22;33280;52.152;21.052;2023-02-20T14:35:57;6.40;99.90
47540;DHT22;33280;52.152;21.052;2023-02-20T14:41:18;6.40;99.90
47540;DHT22;33280;52.152;21.052;2023-02-20T14:43:59;6.60;99.90
47540;DHT22;33280;52.152;21.052;2023-02-20T14:46:32;6.70;99.90
47540;DHT22;33280;52.152;21.052;2023-02-20T14:49:08;6.70;99.90
47540;DHT22;33280;52.152;21.052;2023-02-20T14:51:35;6.80;99.90
47540;DHT22;33280;52.152;21.052;2023-02-20T14:54:23;6.80;99.90
47540;DHT22;33280;52.152;21.052;2023-02-20T14:56:51;6.90;99.90
47540;DHT22;33280;52.152;21.052;2023-02-20T15:01:56;6.90;99.90
47540;DHT22;33280;52.152;21.052;2023-02-20T15:04:26;7.10;99.90
47540;DHT22;33280;52.152;21.052;2023-02-20T15:06:59;7.10;99.90
47540;DHT22;33280;52.152;21.052;2023-02-20T15:09:39;7.10;99.90
47540;DHT22;33280;52.152;21.052;2023-02-20T15:12:27;7.10;99.90
47540;DHT22;33280;52.152;21.052;2023-02-20T15:15:00;7.20;99.90
47540;DHT22;33280;52.152;21.052;2023-02-20T15:17:30;7.20;99.90
47540;DHT22;33280;52.152;21.052;2023-02-20T15:23:31;7.30;99.90
47540;DHT22;33280;52.152;21.052;2023-02-20T15:26:24;7.30;99.90
47540;DHT22;33280;52.152;21.052;2023-02-20T15:28:46;7.40;99.90
47540;DHT22;33280;52.152;21.052;2023-02-20T15:31:25;7.40;99.90
47540;DHT22;33280;52.152;21.052;2023-02-20T15:33:53;7.40;99.90
47540;DHT22;33280;52.152;21.052;2023-02-20T15:36:23;7.50;99.90
47540;DHT22;33280;52.152;21.052;2023-02-20T15:38:55;7.50;99.90
47540;DHT22;33280;52.152;21.052;2023-02-20T15:41:23;7.50;99.90
47540;DHT22;33280;52.152;21.052;2023-02-20T15:43:50;7.50;99.90
47540;DHT22;33280;52.152;21.052;2023-02-20T15:46:19;7.60;99.90
47540;DHT22;33280;52.152;21.052;2023-02-20T15:48:46;7.60;99.90
47540;DHT22;33280;52.152;21.052;2023-02-20T15:51:18;7.60;99.90
47540;DHT22;33280;52.152;21.052;2023-02-20T15:53:47;7.60;99.90
47540;DHT22;33280;52.152;21.052;2023-02-20T15:56:14;7.60;99.90
47540;DHT22;33280;52.152;21.052;2023-02-20T15:58:44;7.70;99.90
47540;DHT22;33280;52.152;21.052;2023-02-20T16:01:12;7.70;99.90
47540;DHT22;33280;52.152;21.052;2023-02-20T16:03:39;7.80;99.90
47540;DHT22;33280;52.152;21.052;2023-02-20T16:06:21;7.80;99.90
47540;DHT22;33280;52.152;21.052;2023-02-20T16:08:52;7.80;99.90
47540;DHT22;33280;52.152;21.052;2023-02-20T16:11:21;7.80;99.90
47540;DHT22;33280;52.152;21.052;2023-02-20T16:13:54;7.80;99.90
47540;DHT22;33280;52.152;21.052;2023-02-20T16:18:56;7.80;99.90
47540;DHT22;33280;52.152;21.052;2023-02-20T16:21:24;7.90;99.90
47540;DHT22;33280;52.152;21.052;2023-02-20T16:23:53;7.90;99.90
47540;DHT22;33280;52.152;21.052;2023-02-20T16:26:27;7.90;99.90
47540;DHT22;33280;52.152;21.052;2023-02-20T16:29:02;8.00;99.90
47540;DHT22;33280;52.152;21.052;2023-02-20T16:34:26;8.00;99.90
47540;DHT22;33280;52.152;21.052;2023-02-20T16:36:59;8.10;99.90
47540;DHT22;33280;52.152;21.052;2023-02-20T16:39:30;8.10;99.90
47540;DHT22;33280;52.152;21.052;2023-02-20T16:41:58;8.10;99.90
47540;DHT22;33280;52.152;21.052;2023-02-20T16:44:45;8.10;99.90
47540;DHT22;33280;52.152;21.052;2023-02-20T16:53:36;8.10;99.90
47540;DHT22;33280;52.152;21.052;2023-02-20T16:56:03;8.10;99.90
47540;DHT22;33280;52.152;21.052;2023-02-20T16:58:29;8.00;99.90
47540;DHT22;33280;52.152;21.052;2023-02-20T17:00:58;7.90;99.90
47540;DHT22;33280;52.152;21.052;2023-02-20T17:03:25;7.80;99.90
47540;DHT22;33280;52.152;21.052;2023-02-20T17:06:09;7.70;99.90
47540;DHT22;33280;52.152;21.052;2023-02-20T17:08:42;7.60;99.90
47540;DHT22;33280;52.152;21.052;2023-02-20T17:11:31;7.60;99.90
47540;DHT22;33280;52.152;21.052;2023-02-20T17:13:58;7.40;99.90
47540;DHT22;33280;52.152;21.052;2023-02-20T17:16:26;7.30;99.90
47540;DHT22;33280;52.152;21.052;2023-02-20T17:18:58;7.30;99.90
47540;DHT22;33280;52.152;21.052;2023-02-20T17:21:25;7.20;99.90
47540;DHT22;33280;52.152;21.052;2023-02-20T17:23:52;7.20;99.90
47540;DHT22;33280;52.152;21.052;2023-02-20T17:26:19;7.20;99.90
47540;DHT22;33280;52.152;21.052;2023-02-20T17:28:45;7.20;99.90
47540;DHT22;33280;52.152;21.052;2023-02-20T17:31:13;7.30;99.90
47540;DHT22;33280;52.152;21.052;2023-02-20T17:33:40;7.30;99.90
47540;DHT22;33280;52.152;21.052;2023-02-20T17:36:08;7.30;99.90
47540;DHT22;33280;52.152;21.052;2023-02-20T17:38:36;7.30;99.90
47540;DHT22;33280;52.152;21.052;2023-02-20T17:41:03;7.30;99.90
47540;DHT22;33280;52.152;21.052;2023-02-20T17:43:33;7.30;99.90
47540;DHT22;33280;52.152;21.052;2023-02-20T17:46:01;7.30;99.90
47540;DHT22;33280;52.152;21.052;2023-02-20T17:48:28;7.40;99.90
47540;DHT22;33280;52.152;21.052;2023-02-20T17:50:55;7.40;99.90
47540;DHT22;33280;52.152;21.052;2023-02-20T17:53:22;7.40;99.90
47540;DHT22;33280;52.152;21.052;2023-02-20T17:55:49;7.40;99.90
47540;DHT22;33280;52.152;21.052;2023-02-20T17:58:16;7.40;99.90
47540;DHT22;33280;52.152;21.052;2023-02-20T18:00:43;7.40;99.90
47540;DHT22;33280;52.152;21.052;2023-02-20T18:03:11;7.40;99.90
47540;DHT22;33280;52.152;21.052;2023-02-20T18:05:38;7.40;99.90
47540;DHT22;33280;52.152;21.052;2023-02-20T18:08:04;7.50;99.90
47540;DHT22;33280;52.152;21.052;2023-02-20T18:10:32;7.40;99.90
47540;DHT22;33280;52.152;21.052;2023-02-20T18:12:58;7.40;99.90
47540;DHT22;33280;52.152;21.052;2023-02-20T18:15:35;7.40;99.90
47540;DHT22;33280;52.152;21.052;2023-02-20T18:18:03;7.40;99.90
47540;DHT22;33280;52.152;21.052;2023-02-20T18:20:30;7.40;99.90
47540;DHT22;33280;52.152;21.052;2023-02-20T18:22:57;7.40;99.90
47540;DHT22;33280;52.152;21.052;2023-02-20T18:25:24;7.50;99.90
47540;DHT22;33280;52.152;21.052;2023-02-20T18:28:06;7.50;99.90